createdAt,value
2019-06-10T00:00:13.577Z,58.10
2019-06-10T00:02:42.804Z,57.40
2019-06-10T00:05:13.435Z,57.50
2019-06-10T00:07:43.664Z,58.30
2019-06-10T00:10:15.293Z,57.80
2019-06-10T00:12:45.619Z,58.10
2019-06-10T00:15:16.199Z,58.00
2019-06-10T00:17:53.389Z,58.10
2019-06-10T00:20:18.328Z,58.00
2019-06-10T00:22:48.540Z,58.10
2019-06-10T00:25:21.867Z,58.10
2019-06-10T00:27:52.281Z,58.40
2019-06-10T00:30:22.620Z,58.20
2019-06-10T00:32:52.808Z,59.70
2019-06-10T00:35:23.103Z,58.50
2019-06-10T00:37:54.337Z,58.60
2019-06-10T00:40:24.545Z,58.50
2019-06-10T00:42:54.891Z,58.80
2019-06-10T00:45:25.160Z,58.80
2019-06-10T00:48:12.373Z,58.80
2019-06-10T00:50:37.743Z,58.60
2019-06-10T00:53:09.899Z,58.50
2019-06-10T00:55:41.548Z,58.70
2019-06-10T00:58:14.047Z,58.80
2019-06-10T01:00:48.298Z,58.60
2019-06-10T01:03:20.726Z,59.00
2019-06-10T01:05:50.894Z,58.90
2019-06-10T01:08:21.578Z,59.00
2019-06-10T01:10:52.366Z,59.30
2019-06-10T01:13:22.693Z,58.80
2019-06-10T01:15:53.965Z,58.80
2019-06-10T01:18:34.737Z,59.50
2019-06-10T01:20:56.104Z,59.70
2019-06-10T01:23:26.536Z,59.40
2019-06-10T01:25:56.725Z,59.50
2019-06-10T01:28:27.020Z,59.70
2019-06-10T01:30:57.210Z,59.70
2019-06-10T01:33:27.438Z,60.00
2019-06-10T01:35:57.627Z,59.70
2019-06-10T01:38:27.866Z,59.90
2019-06-10T01:41:01.326Z,60.40
2019-06-10T01:43:32.085Z,60.40
2019-06-10T01:46:02.511Z,60.40
2019-06-10T01:48:44.237Z,61.20
2019-06-10T01:51:04.689Z,60.40
2019-06-10T01:53:35.020Z,60.70
2019-06-10T01:56:05.236Z,60.80
2019-06-10T01:58:35.425Z,60.20
2019-06-10T02:01:10.838Z,60.40
2019-06-10T02:03:41.503Z,60.70
2019-06-10T02:06:17.695Z,61.00
2019-06-10T02:08:44.931Z,61.00
2019-06-10T02:11:17.216Z,61.00
2019-06-10T02:13:46.996Z,60.50
2019-06-10T02:16:17.775Z,61.20
2019-06-10T02:19:00.176Z,60.60
2019-06-10T02:21:24.326Z,61.20
2019-06-10T02:23:53.018Z,61.20
2019-06-10T02:26:23.725Z,61.40
2019-06-10T02:28:54.069Z,61.40
2019-06-10T02:31:30.531Z,61.70
2019-06-10T02:33:56.127Z,61.60
2019-06-10T02:36:31.072Z,61.60
2019-06-10T02:38:58.173Z,61.50
2019-06-10T02:41:32.142Z,61.90
2019-06-10T02:44:03.955Z,63.20
2019-06-10T02:46:36.017Z,62.30
2019-06-10T02:49:21.423Z,62.40
2019-06-10T02:51:36.304Z,61.80
2019-06-10T02:54:06.487Z,62.10
2019-06-10T02:56:37.018Z,62.10
2019-06-10T02:59:07.335Z,62.00
2019-06-10T03:01:38.656Z,62.10
2019-06-10T03:04:13.512Z,62.50
2019-06-10T03:06:44.717Z,62.40
2019-06-10T03:09:14.091Z,63.10
2019-06-10T03:11:45.086Z,62.90
2019-06-10T03:14:17.659Z,63.20
2019-06-10T03:16:49.654Z,62.80
2019-06-10T03:19:37.068Z,63.20
2019-06-10T03:21:52.237Z,63.10
2019-06-10T03:24:25.170Z,63.10
2019-06-10T03:26:56.080Z,63.00
2019-06-10T03:29:27.882Z,62.80
2019-06-10T03:31:58.404Z,63.10
2019-06-10T03:34:36.357Z,63.20
2019-06-10T03:37:02.343Z,62.80
2019-06-10T03:39:32.415Z,62.80
2019-06-10T03:42:02.590Z,62.90
2019-06-10T03:44:33.118Z,62.80
2019-06-10T03:47:03.561Z,63.00
2019-06-10T03:49:46.640Z,63.30
2019-06-10T03:52:05.651Z,63.00
2019-06-10T03:54:35.911Z,63.20
2019-06-10T03:57:06.130Z,62.90
2019-06-10T03:59:36.316Z,63.00
2019-06-10T04:02:06.608Z,63.00
2019-06-10T04:04:38.876Z,62.90
2019-06-10T04:07:27.403Z,62.90
2019-06-10T04:09:53.874Z,63.80
2019-06-10T04:12:25.644Z,62.60
2019-06-10T04:14:56.073Z,62.90
2019-06-10T04:17:27.333Z,62.70
2019-06-10T04:20:09.482Z,62.60
2019-06-10T04:22:30.250Z,62.60
2019-06-10T04:25:02.819Z,62.80
2019-06-10T04:27:33.300Z,62.60
2019-06-10T04:30:04.353Z,62.40
2019-06-10T04:32:34.664Z,62.60
2019-06-10T04:35:05.945Z,62.40
2019-06-10T04:37:36.195Z,63.40
2019-06-10T04:40:08.102Z,62.30
2019-06-10T04:42:38.282Z,62.30
2019-06-10T04:45:08.597Z,62.50
2019-06-10T04:47:38.802Z,62.30
2019-06-10T04:50:23.628Z,62.40
2019-06-10T04:52:42.943Z,62.50
2019-06-10T04:55:13.747Z,62.60
2019-06-10T04:57:43.983Z,62.40
2019-06-10T05:00:14.843Z,62.10
2019-06-10T05:02:45.277Z,62.20
2019-06-10T05:05:16.540Z,62.20
2019-06-10T05:07:46.824Z,62.00
2019-06-10T05:10:17.517Z,62.20
2019-06-10T05:12:49.822Z,62.20
2019-06-10T05:15:22.003Z,61.90
2019-06-10T05:17:52.770Z,62.80
2019-06-10T05:20:39.117Z,62.10
2019-06-10T05:22:54.956Z,63.00
2019-06-10T05:25:25.710Z,62.00
2019-06-10T05:27:57.228Z,62.00
2019-06-10T05:30:29.580Z,62.00
2019-06-10T05:33:02.972Z,62.20
2019-06-10T05:35:33.951Z,61.70
2019-06-10T05:38:06.262Z,61.80
2019-06-10T05:40:36.729Z,61.90
2019-06-10T05:43:08.030Z,61.80
2019-06-10T05:45:38.259Z,61.70
2019-06-10T05:48:14.476Z,61.60
2019-06-10T05:50:43.329Z,61.50
2019-06-10T05:53:13.519Z,61.50
2019-06-10T05:55:43.923Z,61.30
2019-06-10T05:58:14.457Z,61.20
2019-06-10T06:00:45.846Z,61.30
2019-06-10T06:03:16.086Z,61.20
2019-06-10T06:05:46.443Z,61.50
2019-06-10T06:08:16.676Z,61.60
2019-06-10T06:10:46.927Z,61.40
2019-06-10T06:13:23.090Z,61.40
2019-06-10T06:15:52.945Z,61.20
2019-06-10T06:18:24.140Z,61.20
2019-06-10T06:20:54.363Z,61.20
2019-06-10T06:23:24.553Z,61.10
2019-06-10T06:25:54.781Z,61.30
2019-06-10T06:28:25.810Z,61.20
2019-06-10T06:30:56.087Z,61.20
2019-06-10T06:33:27.311Z,61.20
2019-06-10T06:35:57.593Z,61.10
2019-06-10T06:38:28.855Z,61.10
2019-06-10T06:40:59.025Z,61.10
2019-06-10T06:43:32.804Z,61.00
2019-06-10T06:46:02.472Z,60.70
2019-06-10T06:48:36.999Z,60.70
2019-06-10T06:51:08.566Z,60.70
2019-06-10T06:53:46.277Z,60.50
2019-06-10T06:56:09.589Z,60.30
2019-06-10T06:58:43.013Z,60.30
2019-06-10T07:01:14.694Z,60.10
2019-06-10T07:03:45.301Z,60.00
2019-06-10T07:06:16.749Z,60.10
2019-06-10T07:09:00.372Z,60.00
2019-06-10T07:11:24.226Z,59.90
2019-06-10T07:14:15.161Z,59.90
2019-06-10T07:16:46.538Z,59.80
2019-06-10T07:19:18.168Z,59.70
2019-06-10T07:22:05.399Z,59.80
2019-06-10T07:24:20.241Z,59.70
2019-06-10T07:26:54.674Z,59.80
2019-06-10T07:29:22.700Z,59.80
2019-06-10T07:31:53.607Z,59.60
2019-06-10T07:34:24.119Z,59.80
2019-06-10T07:36:55.357Z,60.40
2019-06-10T07:39:25.623Z,59.70
2019-06-10T07:41:56.836Z,59.70
2019-06-10T07:44:27.008Z,59.70
2019-06-10T07:46:57.230Z,59.60
2019-06-10T07:49:27.531Z,59.50
2019-06-10T07:52:12.063Z,59.30
2019-06-10T07:54:29.603Z,59.20
2019-06-10T07:57:02.263Z,59.00
2019-06-10T07:59:33.835Z,59.10
2019-06-10T08:02:04.438Z,59.00
2019-06-10T08:04:35.248Z,58.90
2019-06-10T08:07:06.512Z,58.90
2019-06-10T08:09:39.041Z,58.70
2019-06-10T08:12:09.453Z,58.60
2019-06-10T08:14:42.737Z,58.50
2019-06-10T08:17:13.585Z,58.80
2019-06-10T08:19:49.578Z,58.80
2019-06-10T08:22:29.913Z,58.90
2019-06-10T08:24:48.795Z,58.90
2019-06-10T08:27:18.978Z,58.70
2019-06-10T08:29:54.187Z,58.70
2019-06-10T08:32:21.259Z,58.70
2019-06-10T08:34:53.040Z,58.70
2019-06-10T08:37:23.635Z,58.80
2019-06-10T08:39:54.004Z,58.90
2019-06-10T08:42:24.202Z,58.20
2019-06-10T08:44:54.505Z,58.30
2019-06-10T08:47:24.803Z,57.60
2019-06-10T08:49:55.534Z,57.40
2019-06-10T08:52:25.782Z,57.20
2019-06-10T08:54:56.022Z,57.20
2019-06-10T08:57:26.876Z,56.90
2019-06-10T08:59:57.189Z,56.40
2019-06-10T09:02:27.494Z,55.80
2019-06-10T09:04:57.821Z,56.20
2019-06-10T09:07:28.049Z,56.20
2019-06-10T09:09:58.346Z,56.00
2019-06-10T09:12:33.159Z,55.60
2019-06-10T09:15:03.179Z,55.80
2019-06-10T09:17:33.946Z,55.10
2019-06-10T09:20:06.467Z,55.30
2019-06-10T09:22:36.761Z,55.10
2019-06-10T09:25:08.684Z,54.60
2019-06-10T09:27:40.086Z,54.20
2019-06-10T09:30:13.458Z,54.10
2019-06-10T09:32:48.509Z,54.10
2019-06-10T09:35:16.993Z,53.90
2019-06-10T09:37:50.806Z,54.00
2019-06-10T09:40:19.807Z,52.40
2019-06-10T09:42:53.026Z,53.60
2019-06-10T09:45:22.479Z,53.40
2019-06-10T09:47:58.843Z,52.10
2019-06-10T09:50:25.312Z,52.50
2019-06-10T09:52:57.043Z,49.60
2019-06-10T09:55:32.748Z,52.20
2019-06-10T09:58:03.185Z,52.00
2019-06-10T10:00:36.746Z,51.80
2019-06-10T10:03:07.024Z,50.90
2019-06-10T10:05:38.504Z,51.10
2019-06-10T10:08:09.250Z,54.00
2019-06-10T10:10:41.653Z,53.10
2019-06-10T10:13:13.043Z,55.50
2019-06-10T10:15:45.536Z,50.80
2019-06-10T10:18:16.984Z,49.20
2019-06-10T10:20:49.768Z,53.10
2019-06-10T10:23:19.138Z,50.30
2019-06-10T10:25:50.990Z,53.20
2019-06-10T10:28:23.021Z,53.60
2019-06-10T10:30:57.615Z,51.00
2019-06-10T10:35:58.181Z,93.00
2019-06-10T10:38:29.454Z,46.90
2019-06-10T10:40:59.729Z,49.10
2019-06-10T10:43:35.844Z,48.50
2019-06-10T10:46:05.557Z,48.70
2019-06-10T10:48:34.336Z,48.40
2019-06-10T10:51:04.746Z,46.80
2019-06-10T10:53:35.548Z,47.40
2019-06-10T10:56:05.850Z,47.50
2019-06-10T10:58:37.167Z,48.00
2019-06-10T11:01:07.360Z,48.10
2019-06-10T11:03:37.669Z,48.50
2019-06-10T11:06:08.004Z,48.30
2019-06-10T11:08:38.227Z,46.60
2019-06-10T11:11:13.205Z,74.70
2019-06-10T11:13:43.215Z,48.80
2019-06-10T11:18:42.491Z,46.30
2019-06-10T11:21:14.165Z,49.20
2019-06-10T11:23:46.108Z,54.60
2019-06-10T11:28:47.358Z,83.00
2019-06-10T11:31:17.696Z,63.80
2019-06-10T11:33:48.724Z,72.80
2019-06-10T11:36:19.149Z,43.00
2019-06-10T11:38:51.165Z,42.30
2019-06-10T11:41:23.644Z,43.40
2019-06-10T11:43:57.740Z,49.80
2019-06-10T11:46:25.243Z,48.20
2019-06-10T11:49:00.040Z,55.60
2019-06-10T11:51:30.238Z,52.10
2019-06-10T11:54:04.726Z,50.90
2019-06-10T11:56:34.948Z,54.40
2019-06-10T11:59:09.493Z,47.90
2019-06-10T12:01:36.296Z,54.90
2019-06-10T12:04:12.667Z,59.10
2019-06-10T12:06:42.554Z,48.20
2019-06-10T12:09:13.780Z,52.90
2019-06-10T12:11:44.368Z,42.20
2019-06-10T12:14:15.007Z,42.40
2019-06-10T12:19:16.492Z,40.20
2019-06-10T12:24:16.394Z,78.50
2019-06-10T12:26:46.574Z,41.00
2019-06-10T12:31:46.429Z,40.10
2019-06-10T12:34:16.657Z,41.00
2019-06-10T12:36:53.526Z,39.80
2019-06-10T12:39:22.912Z,57.00
2019-06-10T12:41:57.560Z,42.20
2019-06-10T12:44:45.576Z,37.90
2019-06-10T12:47:15.794Z,39.00
2019-06-10T12:49:46.087Z,37.20
2019-06-10T12:52:16.373Z,35.70
2019-06-10T12:54:46.559Z,37.70
2019-06-10T12:57:16.911Z,35.00
2019-06-10T12:59:47.643Z,37.90
2019-06-10T13:02:23.280Z,38.10
2019-06-10T13:04:52.124Z,38.10
2019-06-10T13:07:24.349Z,35.30
2019-06-10T13:09:57.646Z,37.10
2019-06-10T13:12:33.338Z,80.60
2019-06-10T13:15:09.817Z,42.70
2019-06-10T13:17:43.770Z,48.70
2019-06-10T13:20:13.802Z,43.00
2019-06-10T13:22:44.079Z,66.50
2019-06-10T13:25:16.360Z,37.30
2019-06-10T13:27:46.637Z,45.00
2019-06-10T13:30:17.297Z,48.30
2019-06-10T13:32:47.514Z,59.50
2019-06-10T13:35:19.438Z,61.90
2019-06-10T13:37:49.653Z,56.30
2019-06-10T13:40:22.574Z,57.60
2019-06-10T13:42:52.909Z,32.30
2019-06-10T13:45:25.659Z,33.20
2019-06-10T13:47:55.322Z,60.40
2019-06-10T13:50:25.865Z,47.20
2019-06-10T13:52:56.097Z,27.60
2019-06-10T13:55:26.424Z,31.40
2019-06-10T13:57:56.624Z,27.90
2019-06-10T14:00:40.850Z,32.00
2019-06-10T14:03:00.059Z,28.70
2019-06-10T14:05:34.011Z,32.60
2019-06-10T14:08:05.317Z,30.50
2019-06-10T14:10:34.195Z,32.50
2019-06-10T14:13:07.466Z,32.30
2019-06-10T14:15:36.315Z,30.40
2019-06-10T14:18:07.434Z,27.80
2019-06-10T14:20:39.957Z,31.90
2019-06-10T14:23:13.157Z,32.20
2019-06-10T14:25:43.201Z,31.80
2019-06-10T14:28:32.263Z,31.70
2019-06-10T14:30:45.301Z,31.30
2019-06-10T14:33:16.734Z,31.20
2019-06-10T14:35:46.350Z,31.20
2019-06-10T14:38:16.386Z,28.90
2019-06-10T14:40:46.610Z,30.80
2019-06-10T14:43:16.867Z,31.00
2019-06-10T14:45:48.149Z,30.20
2019-06-10T14:48:18.414Z,59.20
2019-06-10T14:50:49.001Z,29.30
2019-06-10T14:53:19.195Z,29.80
2019-06-10T14:55:52.918Z,30.00
2019-06-10T14:58:23.040Z,30.00
2019-06-10T15:00:56.271Z,29.90
2019-06-10T15:03:27.744Z,29.90
2019-06-10T15:05:58.037Z,30.00
2019-06-10T15:08:32.297Z,29.90
2019-06-10T15:11:02.874Z,30.60
2019-06-10T15:13:34.297Z,35.00
2019-06-10T15:16:04.665Z,30.40
2019-06-10T15:18:35.048Z,30.70
2019-06-10T15:21:05.336Z,31.10
2019-06-10T15:23:35.800Z,31.20
2019-06-10T15:26:09.931Z,31.20
2019-06-10T15:28:42.767Z,31.30
2019-06-10T15:31:13.453Z,31.40
2019-06-10T15:33:44.171Z,30.90
2019-06-10T15:36:15.276Z,31.60
2019-06-10T15:38:45.611Z,31.90
2019-06-10T15:41:18.103Z,32.20
2019-06-10T15:43:47.839Z,32.30
2019-06-10T15:46:19.571Z,32.50
2019-06-10T15:48:53.836Z,32.80
2019-06-10T15:51:25.934Z,33.10
2019-06-10T15:53:54.946Z,33.20
2019-06-10T15:56:38.773Z,33.30
2019-06-10T15:58:57.184Z,33.20
2019-06-10T16:01:27.698Z,33.20
2019-06-10T16:03:58.017Z,33.10
2019-06-10T16:06:29.535Z,33.10
2019-06-10T16:08:59.772Z,32.80
2019-06-10T16:11:33.114Z,32.70
2019-06-10T16:14:02.897Z,32.70
2019-06-10T16:16:33.294Z,32.70
2019-06-10T16:19:03.897Z,32.90
2019-06-10T16:21:34.173Z,33.90
2019-06-10T16:24:04.423Z,57.30
2019-06-10T16:26:35.564Z,61.00
2019-06-10T16:29:05.887Z,59.40
2019-06-10T16:31:37.443Z,33.90
2019-06-10T16:34:07.648Z,34.40
2019-06-10T16:36:38.016Z,34.00
2019-06-10T16:39:08.477Z,34.20
2019-06-10T16:41:39.303Z,33.50
2019-06-10T16:44:09.633Z,33.40
2019-06-10T16:46:43.642Z,32.30
2019-06-10T16:49:14.252Z,31.60
2019-06-10T16:51:44.569Z,31.80
2019-06-10T16:54:14.978Z,32.10
2019-06-10T16:56:45.271Z,31.90
2019-06-10T16:59:15.659Z,32.10
2019-06-10T17:01:45.929Z,32.20
2019-06-10T17:04:17.353Z,32.10
2019-06-10T17:06:47.636Z,31.90
2019-06-10T17:09:18.565Z,32.10
2019-06-10T17:11:48.937Z,31.70
2019-06-10T17:14:20.123Z,32.10
2019-06-10T17:16:52.289Z,32.30
2019-06-10T17:19:26.387Z,32.50
2019-06-10T17:21:54.029Z,32.90
2019-06-10T17:24:27.180Z,32.90
2019-06-10T17:26:56.181Z,33.10
2019-06-10T17:29:28.496Z,33.30
2019-06-10T17:31:57.479Z,33.90
2019-06-10T17:34:29.287Z,49.40
2019-06-10T17:36:58.623Z,39.10
2019-06-10T17:39:32.054Z,43.50
2019-06-10T17:42:02.758Z,34.90
2019-06-10T17:44:33.135Z,34.70
2019-06-10T17:47:04.592Z,35.30
2019-06-10T17:49:35.002Z,48.00
2019-06-10T17:52:05.355Z,35.70
2019-06-10T17:54:35.586Z,35.10
2019-06-10T17:57:05.828Z,34.90
2019-06-10T17:59:36.088Z,37.00
2019-06-10T18:02:06.375Z,39.80
2019-06-10T18:04:36.696Z,69.50
2019-06-10T18:07:06.926Z,50.40
2019-06-10T18:09:44.316Z,39.10
2019-06-10T18:12:14.553Z,36.80
2019-06-10T18:14:44.878Z,36.60
2019-06-10T18:17:16.027Z,57.80
2019-06-10T18:19:46.285Z,57.20
2019-06-10T18:22:16.506Z,52.70
2019-06-10T18:24:46.787Z,50.30
2019-06-10T18:27:17.334Z,50.10
2019-06-10T18:29:47.717Z,36.90
2019-06-10T18:32:17.916Z,37.70
2019-06-10T18:34:49.284Z,48.90
2019-06-10T18:37:22.670Z,42.20
2019-06-10T18:39:53.448Z,46.80
2019-06-10T18:42:23.812Z,39.00
2019-06-10T18:44:54.040Z,45.20
2019-06-10T18:47:24.325Z,49.30
2019-06-10T18:49:56.319Z,53.30
2019-06-10T18:52:27.565Z,49.20
2019-06-10T18:57:28.685Z,77.90
2019-06-10T18:59:59.493Z,62.70
2019-06-10T19:05:02.659Z,40.50
2019-06-10T19:07:34.780Z,48.60
2019-06-10T19:12:42.518Z,40.80
2019-06-10T19:15:13.528Z,40.20
2019-06-10T19:17:44.485Z,40.40
2019-06-10T19:20:16.530Z,40.20
2019-06-10T19:22:48.683Z,40.40
2019-06-10T19:25:19.248Z,44.80
2019-06-10T19:30:19.291Z,40.60
2019-06-10T19:32:49.474Z,47.20
2019-06-10T19:35:22.390Z,49.20
